This is the latest recevied weather packets stored in our database for station/object R1ZAAG-14. If no packets are shown the sender has not sent any weather packets the latest 10 day(s).
| Time | Temp. | Humidity | Pressure | Rain* | Wind** | Luminosity | Snow |
|---|---|---|---|---|---|---|---|
| 1777741852 | 11.11° C | 51% | 993.6 hPa | - | - | - | - |
| 1777740951 | 11.11° C | 52% | 993.5 hPa | - | - | - | - |
| 1777740050 | 11.67° C | 54% | 993.5 hPa | - | - | - | - |
| 1777739166 | 10.56° C | 57% | 993.7 hPa | - | - | - | - |
| 1777738265 | 11.67° C | 59% | 993.8 hPa | - | - | - | - |
| 1777737364 | 5° C | 81% | 993.9 hPa | - | - | - | - |
| 1777736464 | 5° C | 86% | 994 hPa | - | - | - | - |
| 1777735564 | 4.44° C | 87% | 994.2 hPa | - | - | - | - |
| 1777734664 | 5° C | 84% | 994.2 hPa | - | - | - | - |
| 1777733763 | 8.33° C | 62% | 994.1 hPa | - | - | - | - |
| 1777732862 | 13.33° C | 49% | 992.2 hPa | - | - | - | - |
| 1777731962 | 16.67° C | 46% | 992.4 hPa | - | - | - | - |
| 1777731062 | 17.78° C | 44% | 992.5 hPa | - | - | - | - |
| 1777730159 | 16.67° C | 46% | 992.9 hPa | - | - | - | - |
| 1777729259 | 15° C | 48% | 993.2 hPa | - | - | - | - |
| 1777728359 | 11.11° C | 53% | 993.3 hPa | - | - | - | - |
| 1777727458 | 10° C | 56% | 993.8 hPa | - | - | - | - |
| 1777726557 | 10.56° C | 55% | 994 hPa | - | - | - | - |
| 1777725657 | 10° C | 57% | 994.3 hPa | - | - | - | - |
| 1777724756 | 10° C | 56% | 994.5 hPa | - | - | - | - |
| 1777723855 | 10.56° C | 56% | 994.6 hPa | - | - | - | - |
| 1777722954 | 11.11° C | 54% | 994.7 hPa | - | - | - | - |
| 1777722053 | 11.67° C | 54% | 994.7 hPa | - | - | - | - |
| 1777721152 | 11.11° C | 54% | 994.9 hPa | - | - | - | - |
| 1777720251 | 10.56° C | 55% | 995.2 hPa | - | - | - | - |
* Rain since midnight (hover to see other rain measurements)
** Current wind speed in m/s (hover to see current wind gust speed)